createdAt,value
2017-12-24T00:00:06.483Z,101710.61
2017-12-24T00:02:34.236Z,101706.56
2017-12-24T00:05:01.972Z,101699.06
2017-12-24T00:07:29.672Z,101690.60
2017-12-24T00:09:57.410Z,101690.19
2017-12-24T00:12:25.116Z,101674.91
2017-12-24T00:14:52.837Z,101698.51
2017-12-24T00:17:20.558Z,101680.34
2017-12-24T00:19:48.386Z,101677.17
2017-12-24T00:22:16.076Z,101685.64
2017-12-24T00:24:43.803Z,101678.11
2017-12-24T00:27:11.427Z,101677.67
2017-12-24T00:29:39.159Z,101683.97
2017-12-24T00:32:06.847Z,101686.59
2017-12-24T00:34:34.524Z,101681.13
2017-12-24T00:37:02.239Z,101684.83
2017-12-24T00:39:29.972Z,101702.23
2017-12-24T00:41:57.651Z,101700.30
2017-12-24T00:44:25.383Z,101685.98
2017-12-24T00:46:53.082Z,101692.50
2017-12-24T00:49:20.806Z,101697.14
2017-12-24T00:51:48.498Z,101684.74
2017-12-24T00:54:16.164Z,101705.02
2017-12-24T00:56:43.864Z,101702.52
2017-12-24T00:59:11.527Z,101688.75
2017-12-24T01:01:39.212Z,101704.71
2017-12-24T01:04:06.992Z,101705.00
2017-12-24T01:06:34.684Z,101684.99
2017-12-24T01:09:02.459Z,101709.31
2017-12-24T01:11:30.092Z,101710.57
2017-12-24T01:13:57.824Z,101696.97
2017-12-24T01:16:25.512Z,101717.94
2017-12-24T01:18:53.184Z,101711.39
2017-12-24T01:21:20.870Z,101725.84
2017-12-24T01:23:48.600Z,101724.56
2017-12-24T01:26:16.279Z,101727.34
2017-12-24T01:28:44.027Z,101709.81
2017-12-24T01:31:11.694Z,101728.18
2017-12-24T01:33:39.460Z,101728.15
2017-12-24T01:36:07.149Z,101739.98
2017-12-24T01:38:34.832Z,101734.41
2017-12-24T01:41:02.560Z,101737.34
2017-12-24T01:43:30.256Z,101740.53
2017-12-24T01:45:57.995Z,101729.10
2017-12-24T01:48:25.632Z,101753.45
2017-12-24T01:50:53.358Z,101735.20
2017-12-24T01:53:21.062Z,101742.58
2017-12-24T01:55:48.814Z,101729.52
2017-12-24T01:58:16.514Z,101738.28
2017-12-24T02:00:44.251Z,101754.70
2017-12-24T02:03:12.000Z,101747.52
2017-12-24T02:05:39.724Z,101745.60
2017-12-24T02:08:07.405Z,101753.67
2017-12-24T02:10:35.135Z,101757.20
2017-12-24T02:13:02.765Z,101743.05
2017-12-24T02:15:30.489Z,101751.70
2017-12-24T02:17:58.138Z,101755.04
2017-12-24T02:20:25.868Z,101753.94
2017-12-24T02:22:53.552Z,101751.02
2017-12-24T02:25:21.287Z,101774.52
2017-12-24T02:27:48.983Z,101784.25
2017-12-24T02:30:16.704Z,101778.69
2017-12-24T02:32:44.406Z,101778.69
2017-12-24T02:35:12.072Z,101765.89
2017-12-24T02:37:39.774Z,101775.20
2017-12-24T02:40:07.500Z,101767.16
2017-12-24T02:42:35.119Z,101745.22
2017-12-24T02:45:02.856Z,101723.25
2017-12-24T02:47:30.532Z,101717.15
2017-12-24T02:49:58.251Z,101719.41
2017-12-24T02:52:25.985Z,101711.20
2017-12-24T02:54:53.706Z,101706.33
2017-12-24T02:57:21.344Z,101713.96
2017-12-24T02:59:49.076Z,101694.23
2017-12-24T03:02:16.835Z,101697.02
2017-12-24T03:04:44.568Z,101688.00
2017-12-24T03:07:12.255Z,101695.38
2017-12-24T03:09:39.995Z,101698.44
2017-12-24T03:12:07.693Z,101691.75
2017-12-24T03:14:35.381Z,101706.91
2017-12-24T03:17:03.031Z,101723.72
2017-12-24T03:19:30.715Z,101724.02
2017-12-24T03:21:58.451Z,101715.55
2017-12-24T03:24:26.135Z,101715.26
2017-12-24T03:26:53.866Z,101724.14
2017-12-24T03:29:21.558Z,101724.02
2017-12-24T03:31:49.232Z,101717.91
2017-12-24T03:34:16.914Z,101713.58
2017-12-24T03:36:44.635Z,101718.75
2017-12-24T03:39:12.315Z,101703.47
2017-12-24T03:41:40.029Z,101700.69
2017-12-24T03:44:07.711Z,101696.50
2017-12-24T03:46:35.386Z,101706.91
2017-12-24T03:49:03.073Z,101703.47
2017-12-24T03:51:30.739Z,101692.63
2017-12-24T03:53:58.433Z,101693.59
2017-12-24T03:56:26.170Z,101683.63
2017-12-24T03:58:53.898Z,101681.27
2017-12-24T04:01:21.667Z,101663.63
2017-12-24T04:03:49.440Z,101655.95
2017-12-24T04:06:17.168Z,101677.75
2017-12-24T04:08:44.834Z,101677.09
2017-12-24T04:11:12.572Z,101674.34
2017-12-24T04:13:40.254Z,101671.56
2017-12-24T04:16:07.979Z,101663.06
2017-12-24T04:18:35.644Z,101676.11
2017-12-24T04:21:03.361Z,101667.22
2017-12-24T04:23:31.040Z,101670.42
2017-12-24T04:25:58.759Z,101663.50
2017-12-24T04:28:26.439Z,101653.06
2017-12-24T04:30:54.165Z,101669.04
2017-12-24T04:33:21.847Z,101655.69
2017-12-24T04:35:49.596Z,101654.05
2017-12-24T04:38:17.276Z,101646.14
2017-12-24T04:40:45.005Z,101644.98
2017-12-24T04:43:12.700Z,101659.47
2017-12-24T04:45:40.434Z,101654.05
2017-12-24T04:48:08.120Z,101653.75
2017-12-24T04:50:35.844Z,101652.80
2017-12-24T04:53:03.470Z,101657.67
2017-12-24T04:55:31.210Z,101643.88
2017-12-24T04:57:58.894Z,101646.39
2017-12-24T05:00:26.589Z,101653.09
2017-12-24T05:02:54.354Z,101638.23
2017-12-24T05:05:22.024Z,101649.06
2017-12-24T05:07:49.697Z,101650.73
2017-12-24T05:10:17.371Z,101656.82
2017-12-24T05:12:45.036Z,101650.17
2017-12-24T05:15:12.727Z,101675.45
2017-12-24T05:17:40.453Z,101654.17
2017-12-24T05:20:08.133Z,101662.41
2017-12-24T05:22:35.861Z,101663.09
2017-12-24T05:25:03.549Z,101652.97
2017-12-24T05:27:31.227Z,101659.89
2017-12-24T05:29:58.908Z,101652.81
2017-12-24T05:32:26.578Z,101652.27
2017-12-24T05:34:55.273Z,101651.70
2017-12-24T05:37:22.997Z,101640.47
2017-12-24T05:39:50.676Z,101654.73
2017-12-24T05:42:18.413Z,101638.48
2017-12-24T05:44:46.098Z,101645.69
2017-12-24T05:47:13.834Z,101651.50
2017-12-24T05:49:41.519Z,101652.09
2017-12-24T05:52:09.264Z,101658.45
2017-12-24T05:54:36.967Z,101662.22
2017-12-24T05:57:04.704Z,101655.82
2017-12-24T05:59:32.396Z,101643.45
2017-12-24T06:02:00.202Z,101659.83
2017-12-24T06:04:27.889Z,101662.06
2017-12-24T06:06:55.617Z,101661.91
2017-12-24T06:09:23.235Z,101651.76
2017-12-24T06:11:50.892Z,101655.66
2017-12-24T06:14:18.558Z,101660.83
2017-12-24T06:16:46.289Z,101657.03
2017-12-24T06:19:13.903Z,101661.20
2017-12-24T06:21:41.629Z,101666.77
2017-12-24T06:24:09.310Z,101666.22
2017-12-24T06:26:37.035Z,101641.75
2017-12-24T06:29:04.713Z,101655.10
2017-12-24T06:31:32.375Z,101648.58
2017-12-24T06:34:00.058Z,101644.94
2017-12-24T06:36:27.803Z,101649.55
2017-12-24T06:38:55.412Z,101626.09
2017-12-24T06:41:23.152Z,101645.95
2017-12-24T06:43:50.886Z,101646.95
2017-12-24T06:46:18.560Z,101644.95
2017-12-24T06:48:46.229Z,101622.89
2017-12-24T06:51:13.900Z,101658.05
2017-12-24T06:53:41.631Z,101647.08
2017-12-24T06:56:09.308Z,101643.87
2017-12-24T06:58:37.049Z,101649.30
2017-12-24T07:01:04.729Z,101649.84
2017-12-24T07:03:32.493Z,101651.79
2017-12-24T07:06:00.173Z,101649.86
2017-12-24T07:08:27.899Z,101648.60
2017-12-24T07:10:55.587Z,101643.48
2017-12-24T07:13:23.319Z,101640.98
2017-12-24T07:15:50.940Z,101634.84
2017-12-24T07:18:18.693Z,101639.59
2017-12-24T07:20:46.331Z,101640.41
2017-12-24T07:23:14.007Z,101644.62
2017-12-24T07:25:41.636Z,101642.22
2017-12-24T07:28:09.301Z,101626.81
2017-12-24T07:30:36.932Z,101648.21
2017-12-24T07:33:04.598Z,101636.95
2017-12-24T07:35:32.205Z,101634.73
2017-12-24T07:37:59.878Z,101623.48
2017-12-24T07:40:27.512Z,101608.28
2017-12-24T07:42:55.249Z,101622.05
2017-12-24T07:45:22.933Z,101630.21
2017-12-24T07:47:50.676Z,101619.83
2017-12-24T07:50:19.268Z,101618.89
2017-12-24T07:52:46.943Z,101628.60
2017-12-24T07:55:14.565Z,101614.42
2017-12-24T07:57:42.283Z,101635.14
2017-12-24T08:00:09.901Z,101650.30
2017-12-24T08:02:37.559Z,101641.27
2017-12-24T08:05:05.183Z,101640.39
2017-12-24T08:07:32.866Z,101644.05
2017-12-24T08:10:00.484Z,101657.12
2017-12-24T08:12:36.347Z,101655.88
2017-12-24T08:15:07.200Z,101652.39
2017-12-24T08:17:34.951Z,101648.37
2017-12-24T08:20:02.661Z,101647.13
2017-12-24T08:22:30.415Z,101635.30
2017-12-24T08:24:58.040Z,101653.22
2017-12-24T08:27:25.665Z,101643.37
2017-12-24T08:29:53.423Z,101649.60
2017-12-24T08:32:21.116Z,101649.17
2017-12-24T08:34:48.809Z,101653.92
2017-12-24T08:37:16.424Z,101654.07
2017-12-24T08:39:44.195Z,101639.89
2017-12-24T08:42:11.816Z,101610.88
2017-12-24T08:44:39.491Z,101633.93
2017-12-24T08:47:07.114Z,101623.95
2017-12-24T08:49:34.854Z,101633.80
2017-12-24T08:52:02.476Z,101613.27
2017-12-24T08:54:30.200Z,101634.11
2017-12-24T08:56:57.824Z,101630.37
2017-12-24T08:59:25.563Z,101644.94
2017-12-24T09:01:53.250Z,101630.63
2017-12-24T09:04:21.027Z,101637.02
2017-12-24T09:06:48.656Z,101635.92
2017-12-24T09:09:16.323Z,101638.16
2017-12-24T09:11:43.955Z,101635.09
2017-12-24T09:14:11.693Z,101648.44
2017-12-24T09:16:39.388Z,101649.41
2017-12-24T09:19:07.131Z,101644.83
2017-12-24T09:21:34.836Z,101652.62
2017-12-24T09:24:02.555Z,101639.26
2017-12-24T09:26:30.238Z,101637.73
2017-12-24T09:28:57.988Z,101627.42
2017-12-24T09:31:25.624Z,101640.88
2017-12-24T09:33:53.302Z,101626.30
2017-12-24T09:36:20.945Z,101636.44
2017-12-24T09:38:48.626Z,101642.41
2017-12-24T09:41:16.307Z,101640.48
2017-12-24T09:43:44.020Z,101632.53
2017-12-24T09:46:11.642Z,101641.95
2017-12-24T09:48:39.394Z,101636.10
2017-12-24T09:51:07.088Z,101626.51
2017-12-24T09:53:34.756Z,101623.61
2017-12-24T09:56:02.373Z,101611.46
2017-12-24T09:58:30.048Z,101607.34
2017-12-24T10:00:57.881Z,101617.41
2017-12-24T10:03:25.660Z,101616.05
2017-12-24T10:05:53.443Z,101626.19
2017-12-24T10:08:21.064Z,101630.77
2017-12-24T10:10:48.796Z,101616.70
2017-12-24T10:13:16.431Z,101598.07
2017-12-24T10:15:44.165Z,101614.61
2017-12-24T10:18:11.793Z,101611.96
2017-12-24T10:20:39.507Z,101597.65
2017-12-24T10:23:07.203Z,101605.98
2017-12-24T10:25:34.909Z,101601.83
2017-12-24T10:28:02.522Z,101581.97
2017-12-24T10:30:30.214Z,101594.37
2017-12-24T10:32:57.850Z,101578.55
2017-12-24T10:35:25.534Z,101576.34
2017-12-24T10:37:53.210Z,101573.46
2017-12-24T10:40:20.879Z,101579.03
2017-12-24T10:42:48.581Z,101577.77
2017-12-24T10:45:16.340Z,101568.91
2017-12-24T10:47:43.973Z,101561.96
2017-12-24T10:50:11.718Z,101560.03
2017-12-24T10:52:39.434Z,101571.97
2017-12-24T10:55:07.179Z,101556.80
2017-12-24T10:57:34.847Z,101562.80
2017-12-24T11:00:02.531Z,101554.28
2017-12-24T11:02:30.192Z,101569.88
2017-12-24T11:04:57.863Z,101564.20
2017-12-24T11:07:25.572Z,101554.59
2017-12-24T11:09:53.280Z,101554.73
2017-12-24T11:12:20.994Z,101553.79
2017-12-24T11:14:48.716Z,101539.23
2017-12-24T11:17:16.399Z,101543.27
2017-12-24T11:19:44.147Z,101540.35
2017-12-24T11:22:11.846Z,101553.28
2017-12-24T11:24:39.757Z,101545.50
2017-12-24T11:27:07.465Z,101539.39
2017-12-24T11:29:35.202Z,101543.72
2017-12-24T11:32:02.825Z,101532.73
2017-12-24T11:34:30.563Z,101538.00
2017-12-24T11:36:58.257Z,101535.39
2017-12-24T11:39:25.941Z,101527.17
2017-12-24T11:41:53.573Z,101517.61
2017-12-24T11:44:21.274Z,101525.37
2017-12-24T11:46:49.019Z,101515.11
2017-12-24T11:49:16.679Z,101524.23
2017-12-24T11:51:44.444Z,101507.87
2017-12-24T11:54:12.135Z,101509.70
2017-12-24T11:56:39.859Z,101516.09
2017-12-24T11:59:07.550Z,101487.34
2017-12-24T12:01:35.297Z,101484.97
2017-12-24T12:04:03.059Z,101490.13
2017-12-24T12:06:30.788Z,101485.80
2017-12-24T12:08:58.482Z,101474.03
2017-12-24T12:11:26.215Z,101487.21
2017-12-24T12:13:53.893Z,101473.87
2017-12-24T12:16:21.628Z,101473.02
2017-12-24T12:18:49.263Z,101475.95
2017-12-24T12:21:17.001Z,101469.69
2017-12-24T12:23:44.694Z,101477.09
2017-12-24T12:26:12.445Z,101466.62
2017-12-24T12:28:40.122Z,101462.47
2017-12-24T12:31:07.861Z,101456.80
2017-12-24T12:33:35.594Z,101464.30
2017-12-24T12:36:03.285Z,101450.13
2017-12-24T12:38:30.976Z,101468.58
2017-12-24T12:40:58.663Z,101468.95
2017-12-24T12:43:26.345Z,101455.20
2017-12-24T12:45:54.027Z,101440.50
2017-12-24T12:48:21.718Z,101454.75
2017-12-24T12:50:49.380Z,101439.50
2017-12-24T12:53:16.999Z,101442.80
2017-12-24T12:55:44.667Z,101444.70
2017-12-24T12:58:12.350Z,101444.97
2017-12-24T13:00:40.028Z,101446.53
2017-12-24T13:03:07.667Z,101416.41
2017-12-24T13:05:35.401Z,101434.01
2017-12-24T13:08:03.039Z,101428.84
2017-12-24T13:10:30.716Z,101413.05
2017-12-24T13:12:58.338Z,101420.09
2017-12-24T13:15:26.017Z,101426.25
2017-12-24T13:17:53.640Z,101407.78
2017-12-24T13:20:21.303Z,101417.84
2017-12-24T13:22:48.916Z,101404.72
2017-12-24T13:25:16.556Z,101411.53
2017-12-24T13:27:44.281Z,101413.82
2017-12-24T13:30:11.908Z,101412.08
2017-12-24T13:32:39.571Z,101415.72
2017-12-24T13:35:07.258Z,101407.13
2017-12-24T13:37:34.928Z,101412.29
2017-12-24T13:40:02.637Z,101410.88
2017-12-24T13:42:30.307Z,101418.52
2017-12-24T13:44:57.924Z,101427.00
2017-12-24T13:47:25.601Z,101421.08
2017-12-24T13:49:53.223Z,101416.22
2017-12-24T13:52:20.902Z,101416.89
2017-12-24T13:54:48.535Z,101415.53
2017-12-24T13:57:16.208Z,101416.79
2017-12-24T13:59:43.838Z,101413.59
2017-12-24T14:02:11.570Z,101403.07
2017-12-24T14:04:39.194Z,101408.62
2017-12-24T14:07:06.858Z,101421.88
2017-12-24T14:09:34.492Z,101409.25
2017-12-24T14:12:05.824Z,101404.95
2017-12-24T14:14:33.445Z,101409.14
2017-12-24T14:17:01.110Z,101415.27
2017-12-24T14:19:28.809Z,101411.94
2017-12-24T14:21:56.493Z,101412.33
2017-12-24T14:24:24.130Z,101401.52
2017-12-24T14:26:51.876Z,101400.84
2017-12-24T14:29:19.524Z,101404.44
2017-12-24T14:31:47.267Z,101408.86
2017-12-24T14:34:14.966Z,101393.88
2017-12-24T14:36:42.637Z,101392.61
2017-12-24T14:39:10.325Z,101379.47
2017-12-24T14:41:38.074Z,101400.98
2017-12-24T14:44:05.760Z,101383.66
2017-12-24T14:46:33.438Z,101390.16
2017-12-24T14:49:01.116Z,101386.92
2017-12-24T14:51:28.842Z,101382.31
2017-12-24T14:53:56.510Z,101385.20
2017-12-24T14:56:24.254Z,101376.90
2017-12-24T14:58:52.230Z,101377.02
2017-12-24T15:01:19.969Z,101370.33
2017-12-24T15:03:47.709Z,101363.52
2017-12-24T15:06:15.408Z,101370.05
2017-12-24T15:08:43.274Z,101356.05
2017-12-24T15:11:10.977Z,101353.55
2017-12-24T15:13:38.744Z,101359.97
2017-12-24T15:16:06.452Z,101358.66
2017-12-24T15:18:34.188Z,101352.23
2017-12-24T15:21:01.876Z,101359.61
2017-12-24T15:23:29.607Z,101351.84
2017-12-24T15:25:57.294Z,101347.92
2017-12-24T15:28:25.020Z,101352.36
2017-12-24T15:30:52.711Z,101351.90
2017-12-24T15:33:20.455Z,101359.27
2017-12-24T15:35:48.167Z,101349.87
2017-12-24T15:38:15.879Z,101349.13
2017-12-24T15:40:43.555Z,101355.53
2017-12-24T15:43:11.241Z,101360.20
2017-12-24T15:45:38.929Z,101347.80
2017-12-24T15:48:06.715Z,101350.34
2017-12-24T15:50:34.429Z,101346.73
2017-12-24T15:53:02.164Z,101357.16
2017-12-24T15:55:29.856Z,101356.41
2017-12-24T15:57:57.584Z,101359.61
2017-12-24T16:00:25.271Z,101357.52
2017-12-24T16:02:53.069Z,101356.27
2017-12-24T16:05:20.752Z,101354.99
2017-12-24T16:07:48.491Z,101345.97
2017-12-24T16:10:16.188Z,101341.33
2017-12-24T16:12:43.924Z,101336.47
2017-12-24T16:15:11.659Z,101329.30
2017-12-24T16:17:39.388Z,101342.19
2017-12-24T16:20:07.067Z,101343.00
2017-12-24T16:22:34.800Z,101331.72
2017-12-24T16:25:02.484Z,101339.22
2017-12-24T16:27:30.220Z,101339.33
2017-12-24T16:29:57.915Z,101335.58
2017-12-24T16:32:25.607Z,101352.28
2017-12-24T16:34:53.292Z,101350.91
2017-12-24T16:37:21.033Z,101351.33
2017-12-24T16:39:48.722Z,101361.34
2017-12-24T16:42:16.455Z,101356.61
2017-12-24T16:44:44.139Z,101343.52
2017-12-24T16:47:11.808Z,101357.00
2017-12-24T16:49:39.565Z,101349.47
2017-12-24T16:52:07.252Z,101343.80
2017-12-24T16:54:34.988Z,101341.58
2017-12-24T16:57:02.684Z,101341.94
2017-12-24T16:59:30.415Z,101341.83
2017-12-24T17:01:58.125Z,101344.22
2017-12-24T17:04:25.908Z,101335.02
2017-12-24T17:06:53.594Z,101336.25
2017-12-24T17:09:21.312Z,101335.00
2017-12-24T17:11:49.001Z,101341.36
2017-12-24T17:14:16.740Z,101331.19
2017-12-24T17:16:44.428Z,101332.97
2017-12-24T17:19:12.177Z,101342.86
2017-12-24T17:21:39.865Z,101344.95
2017-12-24T17:24:07.592Z,101331.27
2017-12-24T17:26:35.276Z,101337.25
2017-12-24T17:29:03.035Z,101326.82
2017-12-24T17:31:30.729Z,101325.44
2017-12-24T17:33:58.466Z,101327.63
2017-12-24T17:36:26.147Z,101328.35
2017-12-24T17:38:53.896Z,101327.13
2017-12-24T17:41:21.568Z,101315.70
2017-12-24T17:43:49.236Z,101308.42
2017-12-24T17:46:16.888Z,101318.31
2017-12-24T17:48:44.562Z,101319.46
2017-12-24T17:51:12.198Z,101319.18
2017-12-24T17:53:39.871Z,101315.59
2017-12-24T17:56:07.516Z,101313.12
2017-12-24T17:58:35.260Z,101305.09
2017-12-24T18:01:02.981Z,101307.66
2017-12-24T18:03:30.677Z,101314.30
2017-12-24T18:05:58.384Z,101302.96
2017-12-24T18:08:26.139Z,101314.94
2017-12-24T18:10:53.828Z,101307.60
2017-12-24T18:13:21.546Z,101297.21
2017-12-24T18:15:49.224Z,101305.94
2017-12-24T18:18:16.906Z,101309.41
2017-12-24T18:20:44.600Z,101315.91
2017-12-24T18:23:12.373Z,101314.97
2017-12-24T18:25:40.055Z,101304.83
2017-12-24T18:28:07.689Z,101301.49
2017-12-24T18:30:35.431Z,101302.57
2017-12-24T18:33:03.179Z,101298.37
2017-12-24T18:35:30.852Z,101299.40
2017-12-24T18:37:58.547Z,101297.77
2017-12-24T18:40:26.269Z,101295.65
2017-12-24T18:42:53.948Z,101292.14
2017-12-24T18:45:21.613Z,101298.67
2017-12-24T18:47:49.295Z,101293.45
2017-12-24T18:50:17.035Z,101296.19
2017-12-24T18:52:44.753Z,101298.91
2017-12-24T18:55:12.435Z,101308.84
2017-12-24T18:57:40.156Z,101294.25
2017-12-24T19:00:07.834Z,101296.19
2017-12-24T19:02:35.468Z,101301.64
2017-12-24T19:05:03.159Z,101301.26
2017-12-24T19:07:30.798Z,101309.31
2017-12-24T19:09:58.471Z,101302.92
2017-12-24T19:12:26.092Z,101308.87
2017-12-24T19:14:53.843Z,101300.22
2017-12-24T19:17:21.539Z,101306.06
2017-12-24T19:19:49.299Z,101299.75
2017-12-24T19:22:16.927Z,101307.25
2017-12-24T19:24:44.708Z,101300.02
2017-12-24T19:27:12.327Z,101303.98
2017-12-24T19:29:40.075Z,101302.80
2017-12-24T19:32:07.743Z,101300.61
2017-12-24T19:34:35.510Z,101288.23
2017-12-24T19:37:03.187Z,101303.64
2017-12-24T19:39:30.904Z,101299.13
2017-12-24T19:41:58.528Z,101309.31
2017-12-24T19:44:26.222Z,101303.89
2017-12-24T19:46:53.915Z,101301.08
2017-12-24T19:49:21.623Z,101298.69
2017-12-24T19:51:49.764Z,101302.86
2017-12-24T19:54:17.479Z,101302.86
2017-12-24T19:56:45.162Z,101305.53
2017-12-24T19:59:12.862Z,101303.41
2017-12-24T20:01:40.482Z,101284.09
2017-12-24T20:04:08.207Z,101289.38
2017-12-24T20:06:37.433Z,101298.31
2017-12-24T20:09:05.122Z,101300.67
2017-12-24T20:11:32.962Z,101303.28
2017-12-24T20:14:00.598Z,101303.03
2017-12-24T20:16:28.285Z,101297.72
2017-12-24T20:18:55.979Z,101304.22
2017-12-24T20:21:23.713Z,101309.26
2017-12-24T20:23:51.427Z,101308.01
2017-12-24T20:26:19.139Z,101310.12
2017-12-24T20:28:46.896Z,101306.83
2017-12-24T20:31:14.628Z,101310.36
2017-12-24T20:33:42.278Z,101307.62
2017-12-24T20:36:10.052Z,101315.19
2017-12-24T20:38:37.757Z,101315.22
2017-12-24T20:41:05.489Z,101304.47
2017-12-24T20:43:33.224Z,101314.95
2017-12-24T20:46:01.034Z,101307.14
2017-12-24T20:48:28.725Z,101304.02
2017-12-24T20:50:56.452Z,101303.16
2017-12-24T20:53:24.127Z,101310.46
2017-12-24T20:55:51.820Z,101300.88
2017-12-24T20:58:19.554Z,101306.40
2017-12-24T21:00:47.273Z,101308.84
2017-12-24T21:03:15.021Z,101307.30
2017-12-24T21:05:42.748Z,101308.91
2017-12-24T21:08:10.422Z,101305.81
2017-12-24T21:10:38.154Z,101308.11
2017-12-24T21:13:05.877Z,101308.78
2017-12-24T21:15:33.614Z,101315.80
2017-12-24T21:18:01.317Z,101302.41
2017-12-24T21:20:29.059Z,101308.16
2017-12-24T21:22:56.754Z,101307.28
2017-12-24T21:25:24.473Z,101318.51
2017-12-24T21:27:52.243Z,101318.96
2017-12-24T21:30:20.049Z,101310.23
2017-12-24T21:32:47.685Z,101315.80
2017-12-24T21:35:15.897Z,101310.48
2017-12-24T21:37:43.576Z,101319.80
2017-12-24T21:40:11.389Z,101325.78
2017-12-24T21:42:39.068Z,101327.38
2017-12-24T21:45:06.822Z,101331.48
2017-12-24T21:47:34.533Z,101332.24
2017-12-24T21:50:02.231Z,101340.07
2017-12-24T21:52:30.003Z,101337.60
2017-12-24T21:54:57.722Z,101337.98
2017-12-24T21:57:25.521Z,101343.76
2017-12-24T21:59:53.216Z,101336.48
2017-12-24T22:02:20.959Z,101344.97
2017-12-24T22:04:48.585Z,101334.72
2017-12-24T22:07:16.316Z,101332.45
2017-12-24T22:09:44.072Z,101337.98
2017-12-24T22:12:11.847Z,101334.23
2017-12-24T22:14:39.588Z,101322.13
2017-12-24T22:17:07.318Z,101320.11
2017-12-24T22:19:35.007Z,101327.20
2017-12-24T22:22:02.713Z,101310.78
2017-12-24T22:24:30.403Z,101330.50
2017-12-24T22:26:58.131Z,101320.80
2017-12-24T22:29:25.862Z,101322.05
2017-12-24T22:31:53.595Z,101303.12
2017-12-24T22:34:21.269Z,101338.95
2017-12-24T22:36:48.980Z,101319.75
2017-12-24T22:39:16.666Z,101341.87
2017-12-24T22:41:44.398Z,101337.38
2017-12-24T22:44:12.087Z,101337.91
2017-12-24T22:46:39.905Z,101320.69
2017-12-24T22:49:07.579Z,101326.39
2017-12-24T22:51:35.348Z,101316.16
2017-12-24T22:54:03.064Z,101325.20
2017-12-24T22:56:30.791Z,101331.47
2017-12-24T22:58:58.474Z,101334.33
2017-12-24T23:01:26.189Z,101331.44
2017-12-24T23:03:53.963Z,101328.06
2017-12-24T23:06:21.682Z,101335.20
2017-12-24T23:08:49.435Z,101320.86
2017-12-24T23:11:18.112Z,101316.31
2017-12-24T23:13:45.852Z,101321.31
2017-12-24T23:16:13.560Z,101322.11
2017-12-24T23:18:41.197Z,101317.17
2017-12-24T23:21:08.914Z,101317.35
2017-12-24T23:23:36.662Z,101319.26
2017-12-24T23:26:04.406Z,101319.85
2017-12-24T23:28:32.136Z,101328.09
2017-12-24T23:30:59.780Z,101315.53
2017-12-24T23:33:27.512Z,101323.23
2017-12-24T23:35:55.246Z,101326.43
2017-12-24T23:38:22.977Z,101319.05
2017-12-24T23:40:50.601Z,101327.55
2017-12-24T23:43:18.376Z,101328.28
2017-12-24T23:45:46.121Z,101326.11
2017-12-24T23:48:13.855Z,101329.11
2017-12-24T23:50:41.544Z,101316.62
2017-12-24T23:53:09.271Z,101322.19
2017-12-24T23:55:36.894Z,101313.67
2017-12-24T23:58:04.594Z,101321.31
